Time;durP1;ratioP1;P1;durP2;ratioP2;P2;SDS_P1;SDS_P2;PMS_P1;PMS_P2;Temp;Humidity;BMP_temperature;BMP_pressure;BME280_temperature;BME280_humidity;BME280_pressure;Samples;Min_cycle;Max_cycle;Signal;HPM_P1;HPM_P2
2022/04/19 00:00:19;;;;;;;;;;;22.50;34.00;;;;;;5070875;28;19928;-62
2022/04/19 00:02:44;;;;;;;;;;;22.50;34.00;;;;;;5073759;28;20280;-61
2022/04/19 00:05:09;;;;;;;;;;;22.40;34.00;;;;;;5067591;28;19913;-61
2022/04/19 00:07:36;;;;;;;;;;;22.40;34.00;;;;;;5060403;28;20292;-61
2022/04/19 00:10:02;;;;;;;;;;;22.40;34.10;;;;;;5070513;28;19916;-61
2022/04/19 00:12:28;;;;;;;;;;;22.40;34.10;;;;;;5072145;28;19913;-61
2022/04/19 00:14:53;;;;;;;;;;;22.30;34.00;;;;;;5072129;28;19989;-61
2022/04/19 00:17:19;;;;;;;;;;;22.30;34.10;;;;;;5072865;28;19916;-61
2022/04/19 00:19:44;;;;;;;;;;;22.30;34.10;;;;;;5071153;28;19917;-61
2022/04/19 00:22:10;;;;;;;;;;;22.30;34.10;;;;;;5069753;28;19999;-61
2022/04/19 00:24:36;;;;;;;;;;;22.30;34.10;;;;;;5071183;28;20076;-61
2022/04/19 00:27:01;;;;;;;;;;;22.30;34.10;;;;;;5070934;28;20300;-60
2022/04/19 00:29:27;;;;;;;;;;;22.30;34.10;;;;;;5071663;28;20304;-61
2022/04/19 00:31:52;;;;;;;;;;;22.30;34.10;;;;;;5070306;28;20356;-61
2022/04/19 00:34:18;;;;;;;;;;;22.20;34.10;;;;;;5066756;28;20316;-61
2022/04/19 00:36:43;;;;;;;;;;;22.20;34.20;;;;;;5072066;28;20540;-61
2022/04/19 00:39:08;;;;;;;;;;;22.20;34.30;;;;;;5071057;28;19924;-61
2022/04/19 00:41:34;;;;;;;;;;;22.10;34.20;;;;;;5071034;28;19916;-61
2022/04/19 00:43:59;;;;;;;;;;;22.10;34.20;;;;;;5067107;28;20035;-61
2022/04/19 00:46:25;;;;;;;;;;;22.10;34.10;;;;;;5066324;28;19970;-61
2022/04/19 00:48:52;;;;;;;;;;;22.10;34.20;;;;;;5071381;28;20400;-61
2022/04/19 00:51:18;;;;;;;;;;;22.10;34.10;;;;;;5064830;28;19912;-61
2022/04/19 00:53:43;;;;;;;;;;;22.20;34.30;;;;;;5063237;28;20397;-61
2022/04/19 00:56:09;;;;;;;;;;;22.10;34.10;;;;;;5066311;28;20299;-61
2022/04/19 00:58:34;;;;;;;;;;;22.10;34.10;;;;;;5071145;28;19918;-61
2022/04/19 01:01:00;;;;;;;;;;;22.10;34.10;;;;;;5072184;28;19912;-61
2022/04/19 01:03:25;;;;;;;;;;;22.00;34.20;;;;;;5071518;28;19915;-61
2022/04/19 01:05:53;;;;;;;;;;;22.00;34.20;;;;;;5072930;28;19913;-61
2022/04/19 01:08:19;;;;;;;;;;;22.00;34.40;;;;;;5072755;28;19908;-62
2022/04/19 01:10:45;;;;;;;;;;;22.00;34.40;;;;;;5073766;28;19977;-61
2022/04/19 01:13:19;;;;;;;;;;;22.00;34.20;;;;;;5072815;28;19908;-61
2022/04/19 01:15:48;;;;;;;;;;;22.10;34.30;;;;;;5072514;28;20230;-61
2022/04/19 01:18:13;;;;;;;;;;;22.10;34.10;;;;;;5072889;28;20358;-61
2022/04/19 01:20:39;;;;;;;;;;;22.20;34.20;;;;;;5072409;28;19955;-61
2022/04/19 01:23:05;;;;;;;;;;;22.20;34.10;;;;;;5070880;28;20283;-61
2022/04/19 01:25:30;;;;;;;;;;;22.30;34.20;;;;;;5072201;28;20261;-61
2022/04/19 01:27:56;;;;;;;;;;;22.40;34.20;;;;;;5070345;28;20363;-61
2022/04/19 01:30:21;;;;;;;;;;;22.50;34.10;;;;;;5071466;28;20283;-61
2022/04/19 01:32:47;;;;;;;;;;;22.60;34.00;;;;;;5069314;28;19913;-61
2022/04/19 01:35:16;;;;;;;;;;;22.70;33.90;;;;;;5071473;28;20383;-61
2022/04/19 01:37:42;;;;;;;;;;;22.80;33.80;;;;;;5068773;28;19917;-61
2022/04/19 01:40:16;;;;;;;;;;;22.90;33.70;;;;;;5069730;28;19969;-61
2022/04/19 01:42:44;;;;;;;;;;;23.00;33.60;;;;;;5068390;28;20372;-62
2022/04/19 01:45:10;;;;;;;;;;;23.10;33.50;;;;;;5071526;28;19924;-61
2022/04/19 01:47:35;;;;;;;;;;;23.10;33.30;;;;;;5072619;28;19915;-61
2022/04/19 01:50:00;;;;;;;;;;;23.20;33.30;;;;;;5070008;28;20011;-61
2022/04/19 01:52:26;;;;;;;;;;;23.30;33.30;;;;;;5068702;28;20346;-62
2022/04/19 01:54:51;;;;;;;;;;;23.30;33.20;;;;;;5065283;28;20020;-61
2022/04/19 01:57:19;;;;;;;;;;;23.30;33.10;;;;;;5070082;28;19912;-61
2022/04/19 01:59:44;;;;;;;;;;;23.30;33.10;;;;;;5070148;28;19927;-61
2022/04/19 02:02:10;;;;;;;;;;;23.30;33.10;;;;;;5068203;28;20331;-61
2022/04/19 02:04:35;;;;;;;;;;;23.30;33.10;;;;;;5070789;28;19912;-61
2022/04/19 02:07:03;;;;;;;;;;;23.30;33.10;;;;;;5070577;28;19916;-61
2022/04/19 02:09:28;;;;;;;;;;;23.30;33.10;;;;;;5071682;28;19912;-61
2022/04/19 02:11:54;;;;;;;;;;;23.20;33.10;;;;;;5072043;28;20287;-61
2022/04/19 02:14:20;;;;;;;;;;;23.20;33.20;;;;;;5070432;28;20396;-61
2022/04/19 02:16:45;;;;;;;;;;;23.20;33.20;;;;;;5063576;28;19916;-61
2022/04/19 02:19:11;;;;;;;;;;;23.20;33.20;;;;;;5067068;28;20369;-61
2022/04/19 02:21:36;;;;;;;;;;;23.20;33.20;;;;;;5067562;28;19916;-61
2022/04/19 02:24:02;;;;;;;;;;;23.20;33.40;;;;;;5059238;28;19919;-61
2022/04/19 02:26:28;;;;;;;;;;;23.10;33.40;;;;;;5065132;28;19972;-62
2022/04/19 02:28:53;;;;;;;;;;;23.10;33.50;;;;;;5062637;28;20022;-62
2022/04/19 02:31:19;;;;;;;;;;;23.00;33.60;;;;;;5061663;28;19923;-61
2022/04/19 02:33:44;;;;;;;;;;;22.90;33.60;;;;;;5065836;28;19916;-61
2022/04/19 02:36:09;;;;;;;;;;;22.90;33.80;;;;;;5069286;28;19924;-61
2022/04/19 02:38:36;;;;;;;;;;;22.80;33.70;;;;;;5065271;28;19923;-61
2022/04/19 02:41:01;;;;;;;;;;;22.80;33.90;;;;;;5065261;28;19924;-61
2022/04/19 02:43:26;;;;;;;;;;;22.70;34.00;;;;;;5060538;28;19923;-61
2022/04/19 02:45:54;;;;;;;;;;;22.70;34.00;;;;;;5056388;28;19920;-61
2022/04/19 02:48:21;;;;;;;;;;;22.70;34.00;;;;;;5070061;28;19916;-61
2022/04/19 02:50:48;;;;;;;;;;;22.70;34.00;;;;;;5067516;28;20320;-61
2022/04/19 02:53:14;;;;;;;;;;;22.70;33.90;;;;;;5069060;28;19936;-62
2022/04/19 02:55:39;;;;;;;;;;;22.70;33.80;;;;;;5065136;28;20000;-61
2022/04/19 02:58:07;;;;;;;;;;;22.70;33.80;;;;;;5063875;28;19917;-61
2022/04/19 03:00:32;;;;;;;;;;;22.70;33.80;;;;;;5069110;28;19920;-61
2022/04/19 03:02:57;;;;;;;;;;;22.70;33.70;;;;;;5070596;28;20010;-61
2022/04/19 03:05:23;;;;;;;;;;;22.80;33.80;;;;;;5064854;28;19966;-61
2022/04/19 03:07:48;;;;;;;;;;;22.80;33.70;;;;;;5069204;28;19919;-62
2022/04/19 03:10:15;;;;;;;;;;;22.80;33.60;;;;;;5074700;28;19931;-61
2022/04/19 03:12:41;;;;;;;;;;;22.80;33.70;;;;;;5069196;28;20330;-62
2022/04/19 03:15:07;;;;;;;;;;;22.80;33.60;;;;;;5064499;28;19916;-61
2022/04/19 03:17:34;;;;;;;;;;;22.80;33.70;;;;;;5065897;28;19970;-61
2022/04/19 03:20:00;;;;;;;;;;;22.70;33.70;;;;;;5066041;28;19920;-60
2022/04/19 03:27:41;;;;;;;;;;;22.70;33.70;;;;;;5072398;28;19919;-61
2022/04/19 03:27:55;;;;;;;;;;;22.70;33.80;;;;;;5071466;28;19923;-62
2022/04/19 03:30:20;;;;;;;;;;;22.60;33.80;;;;;;5073311;28;19913;-61
2022/04/19 03:32:47;;;;;;;;;;;22.60;33.80;;;;;;5064754;28;19916;-61
2022/04/19 03:35:12;;;;;;;;;;;22.60;33.80;;;;;;5066071;28;19934;-61
2022/04/19 03:37:39;;;;;;;;;;;22.60;33.90;;;;;;5069831;28;19913;-61
2022/04/19 03:40:05;;;;;;;;;;;22.60;34.00;;;;;;5072607;28;19927;-61
2022/04/19 03:42:31;;;;;;;;;;;22.60;34.00;;;;;;5070278;28;20273;-61
2022/04/19 03:44:56;;;;;;;;;;;22.60;34.00;;;;;;5070648;28;20065;-61
2022/04/19 03:47:22;;;;;;;;;;;22.60;33.90;;;;;;5071895;28;19912;-61
2022/04/19 03:49:47;;;;;;;;;;;22.60;33.90;;;;;;5071520;28;19916;-61
2022/04/19 03:52:13;;;;;;;;;;;22.60;34.00;;;;;;5073355;28;19912;-61
2022/04/19 03:54:38;;;;;;;;;;;22.60;34.00;;;;;;5069745;28;19913;-62
2022/04/19 03:57:05;;;;;;;;;;;22.60;33.90;;;;;;5069619;28;20339;-61
2022/04/19 03:59:31;;;;;;;;;;;22.60;33.90;;;;;;5072383;28;19913;-61
2022/04/19 04:01:57;;;;;;;;;;;22.60;33.90;;;;;;5072881;28;19912;-61
2022/04/19 04:04:22;;;;;;;;;;;22.60;33.90;;;;;;5071750;28;20368;-61
2022/04/19 04:06:48;;;;;;;;;;;22.60;33.90;;;;;;5068154;28;19916;-61
2022/04/19 04:09:13;;;;;;;;;;;22.70;33.80;;;;;;5066850;28;19912;-61
2022/04/19 04:11:39;;;;;;;;;;;22.70;33.80;;;;;;5066299;28;19920;-61
2022/04/19 04:14:04;;;;;;;;;;;22.70;33.80;;;;;;5066981;28;19999;-61
2022/04/19 04:16:30;;;;;;;;;;;22.70;33.80;;;;;;5070823;28;19918;-61
2022/04/19 04:18:55;;;;;;;;;;;22.80;33.80;;;;;;5073102;28;19913;-61
2022/04/19 04:21:21;;;;;;;;;;;22.70;33.70;;;;;;5072049;28;20022;-61
2022/04/19 04:23:46;;;;;;;;;;;22.70;33.70;;;;;;5072892;28;20387;-61
2022/04/19 04:26:11;;;;;;;;;;;22.70;33.80;;;;;;5070873;28;20426;-61
2022/04/19 04:28:37;;;;;;;;;;;22.70;33.80;;;;;;5076999;28;20396;-61
2022/04/19 04:31:02;;;;;;;;;;;22.70;33.80;;;;;;5070967;28;20419;-61
2022/04/19 04:33:28;;;;;;;;;;;22.70;33.80;;;;;;5068970;28;19958;-61
2022/04/19 04:35:53;;;;;;;;;;;22.70;33.80;;;;;;5073054;28;19926;-61
2022/04/19 04:38:19;;;;;;;;;;;22.70;33.70;;;;;;5072619;28;20015;-61
2022/04/19 04:40:44;;;;;;;;;;;22.70;33.80;;;;;;5069268;28;19968;-61
2022/04/19 04:43:10;;;;;;;;;;;22.70;33.80;;;;;;5071421;28;19951;-61
2022/04/19 04:45:35;;;;;;;;;;;22.60;33.80;;;;;;5065752;28;19928;-61
2022/04/19 04:50:44;;;;;;;;;;;22.50;33.90;;;;;;5070143;28;19962;-61
2022/04/19 04:53:10;;;;;;;;;;;22.50;33.90;;;;;;5069532;28;19912;-61
2022/04/19 04:55:35;;;;;;;;;;;22.50;34.00;;;;;;5067533;28;20426;-61
2022/04/19 04:58:01;;;;;;;;;;;22.50;33.90;;;;;;5068754;28;19916;-61
2022/04/19 05:00:27;;;;;;;;;;;22.50;33.90;;;;;;5065150;28;19920;-61
2022/04/19 05:02:53;;;;;;;;;;;22.60;33.90;;;;;;5069558;28;19949;-61
2022/04/19 05:05:19;;;;;;;;;;;22.60;33.90;;;;;;5068424;28;20292;-62
2022/04/19 05:07:44;;;;;;;;;;;22.60;33.80;;;;;;5072460;28;19999;-61
2022/04/19 05:10:10;;;;;;;;;;;22.60;33.80;;;;;;5072555;28;19913;-61
2022/04/19 05:12:35;;;;;;;;;;;22.70;33.80;;;;;;5071267;28;19916;-61
2022/04/19 05:15:01;;;;;;;;;;;22.70;33.80;;;;;;5072183;28;19963;-62
2022/04/19 05:17:27;;;;;;;;;;;22.70;33.70;;;;;;5070995;28;19912;-61
2022/04/19 05:19:53;;;;;;;;;;;22.70;33.70;;;;;;5071062;28;20318;-61
2022/04/19 05:22:19;;;;;;;;;;;22.70;33.70;;;;;;5071121;28;19912;-61
2022/04/19 05:24:44;;;;;;;;;;;22.70;33.80;;;;;;5071038;28;20332;-62
2022/04/19 05:27:10;;;;;;;;;;;22.70;33.70;;;;;;5072370;28;19927;-61
2022/04/19 05:29:35;;;;;;;;;;;22.70;33.70;;;;;;5071600;28;19993;-61
2022/04/19 05:32:01;;;;;;;;;;;22.70;33.60;;;;;;5070219;28;19923;-61
2022/04/19 05:34:26;;;;;;;;;;;22.70;33.60;;;;;;5069311;28;19920;-61
2022/04/19 05:36:52;;;;;;;;;;;22.70;33.70;;;;;;5067265;28;19977;-61
2022/04/19 05:39:17;;;;;;;;;;;22.60;33.70;;;;;;5071034;28;19919;-61
2022/04/19 05:41:43;;;;;;;;;;;22.60;33.80;;;;;;5050953;28;19935;-61
2022/04/19 05:44:09;;;;;;;;;;;22.60;33.90;;;;;;5069905;28;19974;-61
2022/04/19 05:46:36;;;;;;;;;;;22.50;33.90;;;;;;5071554;28;20331;-61
2022/04/19 05:49:04;;;;;;;;;;;22.50;33.90;;;;;;5087688;28;19942;-62
2022/04/19 05:51:30;;;;;;;;;;;22.50;34.00;;;;;;5071843;28;20281;-61
2022/04/19 05:53:55;;;;;;;;;;;22.50;34.00;;;;;;5078293;28;19919;-61
2022/04/19 05:56:21;;;;;;;;;;;22.50;33.90;;;;;;5071979;28;20369;-61
2022/04/19 05:58:46;;;;;;;;;;;22.60;33.90;;;;;;5070315;28;20276;-62
2022/04/19 06:01:11;;;;;;;;;;;22.60;33.90;;;;;;5070122;28;19991;-62
2022/04/19 06:06:22;;;;;;;;;;;22.60;33.90;;;;;;5087858;28;20347;-62
2022/04/19 06:08:47;;;;;;;;;;;22.60;33.90;;;;;;5081536;28;19948;-62
2022/04/19 06:11:13;;;;;;;;;;;22.70;33.90;;;;;;5067914;28;19947;-62
2022/04/19 06:13:41;;;;;;;;;;;22.70;33.80;;;;;;5071350;28;20003;-61
2022/04/19 06:16:06;;;;;;;;;;;22.70;33.80;;;;;;5071531;28;20041;-61
2022/04/19 06:18:32;;;;;;;;;;;22.70;33.80;;;;;;5072008;28;19920;-61
2022/04/19 06:20:58;;;;;;;;;;;22.80;33.80;;;;;;5070020;28;19916;-61
2022/04/19 06:23:25;;;;;;;;;;;22.80;33.80;;;;;;5071675;28;19908;-61
2022/04/19 06:25:50;;;;;;;;;;;22.80;33.80;;;;;;5071537;28;19916;-61
2022/04/19 06:28:16;;;;;;;;;;;22.80;33.90;;;;;;5071921;28;19908;-61
2022/04/19 06:30:41;;;;;;;;;;;22.80;33.90;;;;;;5070236;28;19923;-62
2022/04/19 06:33:07;;;;;;;;;;;22.70;33.80;;;;;;5065055;28;19931;-61
2022/04/19 06:35:32;;;;;;;;;;;22.70;33.90;;;;;;5060607;28;19916;-62
2022/04/19 06:37:58;;;;;;;;;;;22.60;33.90;;;;;;5085272;28;19909;-63
2022/04/19 06:40:23;;;;;;;;;;;22.60;34.00;;;;;;5078502;28;19912;-62
2022/04/19 06:42:48;;;;;;;;;;;22.60;34.20;;;;;;5095490;28;19908;-62
2022/04/19 06:45:14;;;;;;;;;;;22.50;34.20;;;;;;5094915;28;19951;-62
2022/04/19 06:47:40;;;;;;;;;;;22.50;34.40;;;;;;5054927;28;19916;-61
2022/04/19 06:50:06;;;;;;;;;;;22.50;34.50;;;;;;5061940;28;20405;-62
2022/04/19 06:52:31;;;;;;;;;;;22.40;34.50;;;;;;5074285;28;19912;-61
2022/04/19 06:54:57;;;;;;;;;;;22.40;35.30;;;;;;5074921;28;19912;-61
2022/04/19 06:57:22;;;;;;;;;;;22.40;34.70;;;;;;5075162;28;19908;-61
2022/04/19 06:59:48;;;;;;;;;;;22.40;35.40;;;;;;5070513;28;20364;-61
2022/04/19 07:02:14;;;;;;;;;;;22.40;34.80;;;;;;5075144;28;20420;-62
2022/04/19 07:04:41;;;;;;;;;;;22.40;34.80;;;;;;5068184;28;20163;-62
2022/04/19 07:07:06;;;;;;;;;;;22.40;34.80;;;;;;5073168;28;19908;-61
2022/04/19 07:09:32;;;;;;;;;;;22.30;34.80;;;;;;5076081;28;19923;-61
2022/04/19 07:11:57;;;;;;;;;;;22.30;34.80;;;;;;5056423;28;19909;-62
2022/04/19 07:14:23;;;;;;;;;;;22.40;34.90;;;;;;5071618;28;19917;-62
2022/04/19 07:16:48;;;;;;;;;;;22.40;34.80;;;;;;5072155;28;20393;-63
2022/04/19 07:19:14;;;;;;;;;;;22.50;34.90;;;;;;5073570;28;19920;-61
2022/04/19 07:27:07;;;;;;;;;;;22.50;34.70;;;;;;5068063;28;19955;-62
2022/04/19 07:29:33;;;;;;;;;;;22.60;34.50;;;;;;5069476;28;19947;-62
2022/04/19 07:31:58;;;;;;;;;;;22.60;34.40;;;;;;5073847;28;19908;-62
2022/04/19 07:34:24;;;;;;;;;;;22.70;34.30;;;;;;5054422;28;19924;-62
2022/04/19 07:36:49;;;;;;;;;;;22.60;34.20;;;;;;5053932;28;19936;-62
2022/04/19 07:39:15;;;;;;;;;;;22.60;34.20;;;;;;5068147;28;20007;-62
2022/04/19 07:41:46;;;;;;;;;;;22.70;34.50;;;;;;5074085;28;19920;-62
2022/04/19 07:44:12;;;;;;;;;;;22.70;34.50;;;;;;5076872;28;19924;-62
2022/04/19 07:46:37;;;;;;;;;;;22.70;34.60;;;;;;5073483;28;19916;-61
2022/04/19 07:49:03;;;;;;;;;;;22.60;34.60;;;;;;5073920;28;19908;-62
2022/04/19 07:51:29;;;;;;;;;;;22.60;34.60;;;;;;5073136;28;20045;-62
2022/04/19 07:53:55;;;;;;;;;;;22.60;34.70;;;;;;5065675;28;19917;-62
2022/04/19 07:56:20;;;;;;;;;;;22.50;34.70;;;;;;5053967;28;19928;-62
2022/04/19 07:58:47;;;;;;;;;;;22.40;34.80;;;;;;5053771;28;20312;-62
2022/04/19 08:01:12;;;;;;;;;;;22.40;34.90;;;;;;5053103;28;19917;-62
2022/04/19 08:03:38;;;;;;;;;;;22.40;34.90;;;;;;5060510;28;19924;-62
2022/04/19 08:06:03;;;;;;;;;;;22.40;34.90;;;;;;5073238;28;19935;-62
2022/04/19 08:08:29;;;;;;;;;;;22.30;34.90;;;;;;5072350;28;19944;-62
2022/04/19 08:10:55;;;;;;;;;;;22.40;35.00;;;;;;5073463;28;19919;-62
2022/04/19 08:13:20;;;;;;;;;;;22.40;35.00;;;;;;5072083;28;19958;-62
2022/04/19 08:15:46;;;;;;;;;;;22.40;34.80;;;;;;5073122;28;19911;-62
2022/04/19 08:18:14;;;;;;;;;;;22.50;34.80;;;;;;5073331;28;19951;-62
2022/04/19 08:20:42;;;;;;;;;;;22.50;34.70;;;;;;5073310;28;19924;-62
2022/04/19 08:23:08;;;;;;;;;;;22.50;34.70;;;;;;5073302;28;19908;-62
2022/04/19 08:25:34;;;;;;;;;;;22.60;34.70;;;;;;5073115;28;19909;-62
2022/04/19 08:27:59;;;;;;;;;;;22.60;34.60;;;;;;5073111;28;19938;-62
2022/04/19 08:30:25;;;;;;;;;;;22.60;34.50;;;;;;5072680;28;20378;-62
2022/04/19 08:32:50;;;;;;;;;;;22.70;34.50;;;;;;5073044;28;20380;-62
2022/04/19 08:35:17;;;;;;;;;;;22.70;34.50;;;;;;5072749;28;20284;-62
2022/04/19 08:37:42;;;;;;;;;;;22.70;34.60;;;;;;5072799;28;20360;-62
2022/04/19 08:40:09;;;;;;;;;;;22.60;34.50;;;;;;5072854;28;19927;-62
2022/04/19 08:42:34;;;;;;;;;;;22.60;34.60;;;;;;5071180;28;19909;-62
2022/04/19 08:45:03;;;;;;;;;;;22.60;34.60;;;;;;5052218;28;19944;-62
2022/04/19 08:47:32;;;;;;;;;;;22.60;34.70;;;;;;5052635;28;19908;-62
2022/04/19 08:49:58;;;;;;;;;;;22.60;34.70;;;;;;5052420;28;19993;-62
2022/04/19 08:52:24;;;;;;;;;;;22.60;34.80;;;;;;5051300;28;19908;-62
2022/04/19 08:57:34;;;;;;;;;;;22.60;34.90;;;;;;5072427;28;19915;-62
2022/04/19 08:59:59;;;;;;;;;;;22.60;34.90;;;;;;5058476;28;19917;-62
2022/04/19 09:02:25;;;;;;;;;;;22.60;34.90;;;;;;5055362;28;20382;-62
2022/04/19 09:04:52;;;;;;;;;;;22.60;34.80;;;;;;5070291;28;19954;-62
2022/04/19 09:07:17;;;;;;;;;;;22.60;34.80;;;;;;5072375;28;19909;-62
2022/04/19 09:09:43;;;;;;;;;;;22.60;34.70;;;;;;5072182;28;20320;-62
2022/04/19 09:12:12;;;;;;;;;;;22.60;34.80;;;;;;5070812;28;20376;-62
2022/04/19 09:14:58;;;;;;;;;;;22.60;35.50;;;;;;5070682;28;19916;-62
2022/04/19 09:17:31;;;;;;;;;;;22.60;34.80;;;;;;5072221;28;19909;-62
2022/04/19 09:20:09;;;;;;;;;;;22.60;35.40;;;;;;5072352;28;19916;-62
2022/04/19 09:22:36;;;;;;;;;;;22.60;34.70;;;;;;5072180;28;20276;-62
2022/04/19 09:25:14;;;;;;;;;;;22.60;34.80;;;;;;5072030;28;20394;-62
2022/04/19 09:27:40;;;;;;;;;;;22.60;34.70;;;;;;5071931;28;19920;-62
2022/04/19 09:30:20;;;;;;;;;;;22.60;34.70;;;;;;5071505;28;19908;-62
2022/04/19 09:33:05;;;;;;;;;;;22.70;34.80;;;;;;5060458;28;19909;-62
2022/04/19 09:35:37;;;;;;;;;;;22.70;34.80;;;;;;5051869;28;19912;-62
2022/04/19 09:38:03;;;;;;;;;;;22.70;34.60;;;;;;5056382;28;19948;-62
2022/04/19 09:40:29;;;;;;;;;;;22.80;34.60;;;;;;5054106;28;19917;-62
2022/04/19 09:42:55;;;;;;;;;;;22.80;34.60;;;;;;5072082;28;19951;-62
2022/04/19 09:45:22;;;;;;;;;;;22.80;34.50;;;;;;5071537;28;19957;-62
2022/04/19 09:47:51;;;;;;;;;;;22.80;34.50;;;;;;5071971;28;20003;-62
2022/04/19 09:50:16;;;;;;;;;;;22.90;34.40;;;;;;5071861;28;19908;-62
2022/04/19 09:52:48;;;;;;;;;;;22.90;34.40;;;;;;5071576;28;19913;-62
2022/04/19 09:55:14;;;;;;;;;;;22.90;34.40;;;;;;5072007;28;19908;-62
2022/04/19 09:57:39;;;;;;;;;;;22.90;34.40;;;;;;5070304;28;19919;-62
2022/04/19 10:00:09;;;;;;;;;;;22.90;34.40;;;;;;5071155;28;19916;-62
2022/04/19 10:08:18;;;;;;;;;;;23.00;34.40;;;;;;5071478;28;20007;-63
2022/04/19 10:10:44;;;;;;;;;;;22.90;34.40;;;;;;5070557;28;19908;-63
2022/04/19 10:13:09;;;;;;;;;;;22.90;34.50;;;;;;5071715;28;19958;-62
2022/04/19 10:15:35;;;;;;;;;;;22.90;34.50;;;;;;5074096;28;20007;-62
2022/04/19 10:18:04;;;;;;;;;;;22.90;34.60;;;;;;5075632;28;19916;-62
2022/04/19 10:20:33;;;;;;;;;;;22.90;34.70;;;;;;5075390;28;19922;-62
2022/04/19 10:23:02;;;;;;;;;;;22.90;34.70;;;;;;5060711;28;19913;-62
2022/04/19 10:25:40;;;;;;;;;;;22.90;34.80;;;;;;5055702;28;20296;-62
2022/04/19 10:28:06;;;;;;;;;;;22.90;34.80;;;;;;5055424;28;19952;-62
2022/04/19 10:30:33;;;;;;;;;;;22.90;34.80;;;;;;5055113;28;19952;-62
2022/04/19 10:33:00;;;;;;;;;;;22.90;34.70;;;;;;5068282;28;19913;-62
2022/04/19 10:35:25;;;;;;;;;;;22.90;34.80;;;;;;5075225;28;19909;-62
2022/04/19 10:38:09;;;;;;;;;;;22.80;34.80;;;;;;5075042;28;19994;-61
2022/04/19 10:40:50;;;;;;;;;;;22.90;35.00;;;;;;5075053;28;19952;-62
2022/04/19 10:43:16;;;;;;;;;;;22.80;34.90;;;;;;5074764;28;19966;-62
2022/04/19 10:45:42;;;;;;;;;;;22.90;35.10;;;;;;5074884;28;20118;-62
2022/04/19 10:48:08;;;;;;;;;;;22.90;35.10;;;;;;5074931;28;19996;-62
2022/04/19 10:50:34;;;;;;;;;;;22.90;35.10;;;;;;5074929;28;20379;-62
2022/04/19 10:53:02;;;;;;;;;;;22.90;35.00;;;;;;5074844;28;20276;-62
2022/04/19 10:55:28;;;;;;;;;;;22.90;35.00;;;;;;5074678;28;19974;-62
2022/04/19 10:58:16;;;;;;;;;;;22.90;35.00;;;;;;5074438;28;19916;-62
2022/04/19 11:00:41;;;;;;;;;;;22.90;35.00;;;;;;5074495;28;19955;-62
2022/04/19 11:03:10;;;;;;;;;;;22.90;35.00;;;;;;5074712;28;20292;-62
2022/04/19 11:05:38;;;;;;;;;;;23.00;35.10;;;;;;5074754;28;19909;-62
2022/04/19 11:08:22;;;;;;;;;;;23.00;35.10;;;;;;5074409;28;19916;-62
2022/04/19 11:10:48;;;;;;;;;;;23.00;35.10;;;;;;5071698;28;20288;-63
2022/04/19 11:13:13;;;;;;;;;;;23.00;35.10;;;;;;5054643;28;20000;-61
2022/04/19 11:15:39;;;;;;;;;;;23.00;35.10;;;;;;5054223;28;19909;-62
2022/04/19 11:18:25;;;;;;;;;;;23.00;35.30;;;;;;5054473;28;20264;-63
2022/04/19 11:20:52;;;;;;;;;;;23.00;35.30;;;;;;5052483;28;19913;-62
2022/04/19 11:23:21;;;;;;;;;;;23.00;35.10;;;;;;5054581;28;20368;-62
2022/04/19 11:25:48;;;;;;;;;;;23.00;35.10;;;;;;5053605;28;20392;-62
2022/04/19 11:28:17;;;;;;;;;;;23.00;35.10;;;;;;5064810;28;19961;-63
2022/04/19 11:30:43;;;;;;;;;;;23.00;35.30;;;;;;5073608;28;19919;-63
2022/04/19 11:33:09;;;;;;;;;;;23.00;35.20;;;;;;5068909;28;19956;-62
2022/04/19 11:35:34;;;;;;;;;;;23.00;35.20;;;;;;5074097;28;20395;-62
2022/04/19 11:38:02;;;;;;;;;;;23.00;35.30;;;;;;5072809;28;19908;-62
2022/04/19 11:48:45;;;;;;;;;;;23.00;35.30;;;;;;5073906;28;19966;-62
2022/04/19 11:51:11;;;;;;;;;;;23.10;35.40;;;;;;5073854;28;19940;-62
2022/04/19 11:53:37;;;;;;;;;;;23.10;35.50;;;;;;5074143;28;20365;-62
2022/04/19 11:56:02;;;;;;;;;;;23.10;35.50;;;;;;5073823;28;19912;-62
2022/04/19 11:58:28;;;;;;;;;;;23.10;35.40;;;;;;5074224;28;19912;-62
2022/04/19 12:00:58;;;;;;;;;;;23.10;35.50;;;;;;5066712;28;19993;-62
2022/04/19 12:03:25;;;;;;;;;;;23.10;35.50;;;;;;5061542;28;19913;-62
2022/04/19 12:05:52;;;;;;;;;;;23.00;35.40;;;;;;5070473;28;19920;-62
2022/04/19 12:08:33;;;;;;;;;;;23.10;35.60;;;;;;5064590;28;19920;-62
2022/04/19 12:10:59;;;;;;;;;;;23.10;35.50;;;;;;5073325;28;19909;-62
2022/04/19 12:13:25;;;;;;;;;;;23.10;35.30;;;;;;5072647;28;20395;-62
2022/04/19 12:15:50;;;;;;;;;;;23.10;35.40;;;;;;5072110;28;19913;-62
2022/04/19 12:18:31;;;;;;;;;;;23.10;35.30;;;;;;5073425;28;19912;-62
2022/04/19 12:20:57;;;;;;;;;;;23.10;35.20;;;;;;5071098;28;20335;-62
2022/04/19 12:23:23;;;;;;;;;;;23.20;35.30;;;;;;5073307;28;19919;-62
2022/04/19 12:26:00;;;;;;;;;;;23.20;35.30;;;;;;5075753;28;19920;-62
2022/04/19 12:28:41;;;;;;;;;;;23.20;35.30;;;;;;5093544;28;19915;-62
2022/04/19 12:31:07;;;;;;;;;;;23.20;35.20;;;;;;5076247;28;19955;-62
2022/04/19 12:33:34;;;;;;;;;;;23.20;35.10;;;;;;5051679;28;19912;-62
2022/04/19 12:36:00;;;;;;;;;;;23.20;35.20;;;;;;5062419;28;19994;-62
2022/04/19 12:38:31;;;;;;;;;;;23.20;35.20;;;;;;5071340;28;19952;-62
2022/04/19 12:40:58;;;;;;;;;;;23.20;35.20;;;;;;5072862;28;19978;-62
2022/04/19 12:43:42;;;;;;;;;;;23.30;35.20;;;;;;5072913;28;20288;-62
2022/04/19 12:46:07;;;;;;;;;;;23.30;35.20;;;;;;5072455;28;19962;-62
2022/04/19 12:48:33;;;;;;;;;;;23.30;35.20;;;;;;5072996;28;20316;-62
2022/04/19 12:50:59;;;;;;;;;;;23.30;35.10;;;;;;5078745;28;19966;-62
2022/04/19 12:53:25;;;;;;;;;;;23.30;35.10;;;;;;5077005;28;22129;-62
2022/04/19 12:55:51;;;;;;;;;;;23.40;35.20;;;;;;5091016;28;19921;-62
2022/04/19 12:58:16;;;;;;;;;;;23.40;35.20;;;;;;5089988;28;19912;-62
2022/04/19 13:00:42;;;;;;;;;;;23.40;35.00;;;;;;5092306;28;19913;-62
2022/04/19 13:03:07;;;;;;;;;;;23.40;35.20;;;;;;5084302;28;19920;-62
2022/04/19 13:13:45;;;;;;;;;;;23.40;34.80;;;;;;5072258;28;19926;-62
2022/04/19 13:16:10;;;;;;;;;;;23.40;34.80;;;;;;5071813;28;19999;-62
2022/04/19 13:18:36;;;;;;;;;;;23.40;34.80;;;;;;5072523;28;19915;-62
2022/04/19 13:21:02;;;;;;;;;;;23.40;34.80;;;;;;5071964;28;20433;-62
2022/04/19 13:23:27;;;;;;;;;;;23.50;34.80;;;;;;5072369;28;19909;-62
2022/04/19 13:25:53;;;;;;;;;;;23.50;34.80;;;;;;5071965;28;19935;-62
2022/04/19 13:28:18;;;;;;;;;;;23.50;34.70;;;;;;5072112;28;19988;-62
2022/04/19 13:30:44;;;;;;;;;;;23.50;34.70;;;;;;5071617;28;20277;-62
2022/04/19 13:33:09;;;;;;;;;;;23.50;34.60;;;;;;5071952;28;20352;-62
2022/04/19 13:35:35;;;;;;;;;;;23.50;34.50;;;;;;5071859;28;19913;-62
2022/04/19 13:40:44;;;;;;;;;;;23.60;34.60;;;;;;5071732;28;20053;-62
2022/04/19 13:43:10;;;;;;;;;;;23.60;34.50;;;;;;5071743;28;19977;-62
2022/04/19 13:45:36;;;;;;;;;;;23.60;34.50;;;;;;5071598;28;19986;-62
2022/04/19 13:48:02;;;;;;;;;;;23.60;34.50;;;;;;5070518;28;19999;-62
2022/04/19 13:50:27;;;;;;;;;;;23.60;34.40;;;;;;5071396;28;20050;-62
2022/04/19 13:52:52;;;;;;;;;;;23.60;34.50;;;;;;5071853;28;19920;-62
2022/04/19 13:55:19;;;;;;;;;;;23.60;34.50;;;;;;5071780;28;20310;-62
2022/04/19 13:57:44;;;;;;;;;;;23.60;34.40;;;;;;5071700;28;19909;-62
2022/04/19 14:00:11;;;;;;;;;;;23.50;34.20;;;;;;5070991;28;19917;-62
2022/04/19 14:02:36;;;;;;;;;;;23.60;34.50;;;;;;5071967;28;19943;-62
2022/04/19 14:05:02;;;;;;;;;;;23.60;34.30;;;;;;5071706;28;20399;-62
2022/04/19 14:07:27;;;;;;;;;;;23.60;34.20;;;;;;5071910;28;20281;-62
2022/04/19 14:09:52;;;;;;;;;;;23.60;34.10;;;;;;5071736;28;19912;-62
2022/04/19 14:12:20;;;;;;;;;;;23.60;34.20;;;;;;5055403;28;19916;-62
2022/04/19 14:14:46;;;;;;;;;;;23.60;34.10;;;;;;5051308;28;19990;-62
2022/04/19 14:17:11;;;;;;;;;;;23.60;34.10;;;;;;5054653;28;19912;-62
2022/04/19 14:19:36;;;;;;;;;;;23.70;34.10;;;;;;5071625;28;19908;-62
2022/04/19 14:22:02;;;;;;;;;;;23.70;34.00;;;;;;5071584;28;19931;-62
2022/04/19 14:24:29;;;;;;;;;;;23.70;34.70;;;;;;5071647;28;20035;-62
2022/04/19 14:26:54;;;;;;;;;;;23.70;33.80;;;;;;5071529;28;19913;-62
2022/04/19 14:34:48;;;;;;;;;;;23.70;33.80;;;;;;5059905;28;19966;-62
2022/04/19 14:37:14;;;;;;;;;;;23.70;33.70;;;;;;5071673;28;20330;-62
2022/04/19 14:39:40;;;;;;;;;;;23.70;33.80;;;;;;5066464;28;20306;-61
2022/04/19 14:42:05;;;;;;;;;;;23.70;33.70;;;;;;5071383;28;20003;-61
2022/04/19 14:44:31;;;;;;;;;;;23.70;33.40;;;;;;5071161;28;19927;-61
2022/04/19 14:46:56;;;;;;;;;;;23.70;33.50;;;;;;5071075;28;20045;-61
2022/04/19 14:49:22;;;;;;;;;;;23.70;33.60;;;;;;5070028;28;19915;-61
2022/04/19 14:54:31;;;;;;;;;;;23.70;33.50;;;;;;5051390;28;19951;-61
2022/04/19 14:56:56;;;;;;;;;;;23.70;33.50;;;;;;5051262;28;20337;-61
2022/04/19 14:59:22;;;;;;;;;;;23.70;33.50;;;;;;5051316;28;19936;-61
2022/04/19 15:01:48;;;;;;;;;;;23.70;33.40;;;;;;5068970;28;20040;-61